Time;durP1;ratioP1;P1;durP2;ratioP2;P2;SDS_P1;SDS_P2;PMS_P1;PMS_P2;Temp;Humidity;BMP_temperature;BMP_pressure;BME280_temperature;BME280_humidity;BME280_pressure;Samples;Min_cycle;Max_cycle;Signal;HPM_P1;HPM_P2
2022/07/16 00:03:16;;;;;;;4.60;3.70;;;;;;;;;;5076099;28;20074;-79
2022/07/16 00:05:42;;;;;;;4.53;3.25;;;;;;;;;;5075553;28;20048;-79
2022/07/16 00:08:07;;;;;;;3.72;2.70;;;;;;;;;;5075741;28;20198;-79
2022/07/16 00:10:32;;;;;;;3.53;2.60;;;;;;;;;;5075683;28;20032;-79
2022/07/16 00:12:58;;;;;;;5.93;2.63;;;;;;;;;;5075640;28;20032;-79
2022/07/16 00:15:23;;;;;;;4.75;2.78;;;;;;;;;;5075585;28;20027;-79
2022/07/16 00:19:15;;;;;;;3.33;2.70;;;;;;;;;;5075689;28;20029;-80
2022/07/16 00:20:34;;;;;;;3.97;2.47;;;;;;;;;;5075465;28;20107;-79
2022/07/16 00:23:00;;;;;;;4.35;2.47;;;;;;;;;;5074157;28;20530;-79
2022/07/16 00:25:25;;;;;;;4.05;2.58;;;;;;;;;;5074495;28;20024;-79
2022/07/16 00:27:51;;;;;;;5.20;2.75;;;;;;;;;;5075626;28;20024;-79
2022/07/16 00:30:17;;;;;;;3.63;2.80;;;;;;;;;;5075273;28;20033;-79
2022/07/16 00:32:42;;;;;;;5.53;3.67;;;;;;;;;;5075226;28;20035;-79
2022/07/16 00:35:07;;;;;;;5.10;3.28;;;;;;;;;;5075168;28;20044;-79
2022/07/16 00:37:33;;;;;;;3.80;3.38;;;;;;;;;;5075307;28;20085;-80
2022/07/16 00:39:59;;;;;;;3.75;3.33;;;;;;;;;;5073779;28;20036;-79
2022/07/16 00:42:24;;;;;;;4.38;3.42;;;;;;;;;;5075301;28;20016;-79
2022/07/16 00:44:50;;;;;;;6.40;3.22;;;;;;;;;;5075253;28;20067;-79
2022/07/16 00:47:16;;;;;;;3.28;3.08;;;;;;;;;;5074934;28;20035;-79
2022/07/16 00:49:42;;;;;;;4.88;3.10;;;;;;;;;;5073968;28;20368;-79
2022/07/16 00:52:08;;;;;;;3.72;3.30;;;;;;;;;;5074817;28;20027;-79
2022/07/16 00:54:34;;;;;;;5.70;3.90;;;;;;;;;;5075010;28;20028;-79
2022/07/16 00:56:59;;;;;;;3.55;3.30;;;;;;;;;;5075237;28;20025;-79
2022/07/16 00:59:25;;;;;;;3.67;3.17;;;;;;;;;;5074083;28;20033;-79
2022/07/16 01:01:51;;;;;;;4.22;3.22;;;;;;;;;;5074917;28;20017;-79
2022/07/16 01:04:17;;;;;;;5.88;3.60;;;;;;;;;;5075175;28;20031;-79
2022/07/16 01:06:43;;;;;;;4.40;3.20;;;;;;;;;;5073175;28;20040;-80
2022/07/16 01:09:09;;;;;;;5.55;3.25;;;;;;;;;;5074508;28;20036;-79
2022/07/16 01:11:35;;;;;;;4.45;3.00;;;;;;;;;;5056608;28;20128;-79
2022/07/16 01:14:02;;;;;;;4.78;3.28;;;;;;;;;;5074400;28;20036;-79
2022/07/16 01:16:27;;;;;;;3.22;2.90;;;;;;;;;;5074374;28;20052;-79
2022/07/16 01:18:53;;;;;;;2.75;2.55;;;;;;;;;;5074754;28;20074;-79
2022/07/16 01:21:18;;;;;;;2.70;2.50;;;;;;;;;;5074292;28;20020;-79
2022/07/16 01:23:45;;;;;;;3.20;2.60;;;;;;;;;;5074242;28;20467;-79
2022/07/16 01:26:10;;;;;;;3.03;2.63;;;;;;;;;;5074172;28;20047;-79
2022/07/16 01:28:36;;;;;;;3.30;2.78;;;;;;;;;;5074167;28;20060;-79
2022/07/16 01:31:01;;;;;;;3.25;2.80;;;;;;;;;;5072915;28;20111;-79
2022/07/16 01:33:28;;;;;;;5.25;2.88;;;;;;;;;;5074310;28;20035;-79
2022/07/16 01:35:58;;;;;;;3.92;2.85;;;;;;;;;;5074303;28;20372;-79
2022/07/16 01:38:24;;;;;;;2.90;2.70;;;;;;;;;;5073878;28;20059;-79
2022/07/16 01:40:50;;;;;;;6.18;3.03;;;;;;;;;;5074237;28;20464;-79
2022/07/16 01:43:16;;;;;;;5.28;2.97;;;;;;;;;;5074199;28;20028;-79
2022/07/16 01:45:42;;;;;;;2.95;2.65;;;;;;;;;;5073879;28;20016;-80
2022/07/16 01:48:07;;;;;;;3.08;2.70;;;;;;;;;;5073867;28;20043;-79
2022/07/16 01:50:33;;;;;;;4.03;2.63;;;;;;;;;;5073847;28;20016;-79
2022/07/16 01:52:59;;;;;;;2.72;2.50;;;;;;;;;;5073823;28;20035;-79
2022/07/16 01:55:25;;;;;;;4.30;2.80;;;;;;;;;;5074074;28;20353;-79
2022/07/16 01:57:50;;;;;;;3.35;2.75;;;;;;;;;;5073306;28;20055;-79
2022/07/16 02:00:16;;;;;;;3.63;2.70;;;;;;;;;;5073158;28;20013;-79
2022/07/16 02:02:41;;;;;;;4.38;2.78;;;;;;;;;;5073716;28;20032;-80
2022/07/16 02:05:07;;;;;;;2.60;2.40;;;;;;;;;;5073793;28;20032;-79
2022/07/16 02:07:32;;;;;;;3.95;2.67;;;;;;;;;;5072722;28;20048;-79
2022/07/16 02:09:57;;;;;;;2.92;2.72;;;;;;;;;;5073921;28;20036;-80
2022/07/16 02:12:23;;;;;;;4.65;2.80;;;;;;;;;;5073551;28;20024;-79
2022/07/16 02:14:48;;;;;;;3.38;2.50;;;;;;;;;;5074090;28;20024;-79
2022/07/16 02:17:14;;;;;;;3.60;3.00;;;;;;;;;;5072275;28;20361;-79
2022/07/16 02:19:40;;;;;;;3.13;2.80;;;;;;;;;;5072263;28;20024;-79
2022/07/16 02:22:06;;;;;;;5.78;3.25;;;;;;;;;;5073788;28;20028;-79
2022/07/16 02:24:32;;;;;;;3.08;2.78;;;;;;;;;;5073716;28;20044;-79
2022/07/16 02:26:57;;;;;;;2.70;2.50;;;;;;;;;;5073451;28;20063;-79
2022/07/16 02:29:22;;;;;;;3.58;3.10;;;;;;;;;;5072164;28;20016;-79
2022/07/16 02:31:48;;;;;;;4.43;2.80;;;;;;;;;;5073920;28;20086;-79
2022/07/16 02:34:13;;;;;;;3.33;2.78;;;;;;;;;;5073366;28;20035;-80
2022/07/16 02:36:38;;;;;;;3.05;2.72;;;;;;;;;;5073629;28;20145;-79
2022/07/16 02:39:04;;;;;;;3.88;2.60;;;;;;;;;;5073546;28;20021;-79
2022/07/16 02:41:30;;;;;;;3.72;2.70;;;;;;;;;;5071993;28;20127;-80
2022/07/16 02:43:56;;;;;;;4.80;2.40;;;;;;;;;;5073848;28;20017;-79
2022/07/16 02:46:21;;;;;;;2.95;2.60;;;;;;;;;;5073514;28;20024;-79
2022/07/16 02:48:47;;;;;;;3.60;2.63;;;;;;;;;;5071949;28;20017;-79
2022/07/16 02:51:13;;;;;;;2.78;2.53;;;;;;;;;;5073492;28;20103;-80
2022/07/16 02:53:39;;;;;;;3.38;2.40;;;;;;;;;;5073181;28;20028;-79
2022/07/16 02:56:04;;;;;;;2.70;2.38;;;;;;;;;;5073419;28;20475;-80
2022/07/16 02:58:30;;;;;;;2.50;2.30;;;;;;;;;;5073304;28;20086;-79
2022/07/16 03:00:55;;;;;;;3.10;2.90;;;;;;;;;;5073088;28;20048;-79
2022/07/16 03:03:20;;;;;;;4.07;2.53;;;;;;;;;;5073091;28;20449;-79
2022/07/16 03:05:46;;;;;;;4.18;2.53;;;;;;;;;;5072926;28;20480;-79
2022/07/16 03:08:11;;;;;;;2.85;2.30;;;;;;;;;;5071780;28;20396;-80
2022/07/16 03:10:37;;;;;;;2.25;2.05;;;;;;;;;;5072101;28;20028;-79
2022/07/16 03:13:02;;;;;;;3.88;2.88;;;;;;;;;;5076682;28;20495;-79
2022/07/16 03:15:28;;;;;;;5.90;2.47;;;;;;;;;;5076950;28;20036;-80
2022/07/16 03:17:53;;;;;;;3.38;2.40;;;;;;;;;;5076856;28;20024;-79
2022/07/16 03:20:19;;;;;;;4.15;2.30;;;;;;;;;;5076550;28;20472;-79
2022/07/16 03:22:45;;;;;;;3.78;2.72;;;;;;;;;;5076540;28;20419;-80
2022/07/16 03:25:11;;;;;;;3.97;2.70;;;;;;;;;;5076823;28;20032;-79
2022/07/16 03:27:36;;;;;;;3.75;2.38;;;;;;;;;;5075225;28;20032;-79
2022/07/16 03:30:01;;;;;;;4.68;2.67;;;;;;;;;;5076691;28;20086;-80
2022/07/16 03:32:26;;;;;;;5.25;2.58;;;;;;;;;;5076401;28;20024;-79
2022/07/16 03:34:52;;;;;;;3.78;2.90;;;;;;;;;;5076304;28;20024;-79
2022/07/16 03:37:17;;;;;;;3.72;2.58;;;;;;;;;;5076787;28;20491;-79
2022/07/16 03:39:43;;;;;;;3.85;2.65;;;;;;;;;;5076536;28;20034;-79
2022/07/16 03:42:08;;;;;;;3.10;2.60;;;;;;;;;;5076456;28;20021;-79
2022/07/16 03:44:34;;;;;;;3.97;2.83;;;;;;;;;;5076512;28;20025;-80
2022/07/16 03:46:59;;;;;;;3.75;2.45;;;;;;;;;;5076380;28;20023;-79
2022/07/16 03:49:25;;;;;;;3.50;3.08;;;;;;;;;;5074804;28;20392;-79
2022/07/16 03:51:50;;;;;;;5.40;2.88;;;;;;;;;;5076334;28;20024;-79
2022/07/16 03:54:15;;;;;;;3.90;2.60;;;;;;;;;;5075985;28;20473;-79
2022/07/16 03:56:41;;;;;;;3.03;2.70;;;;;;;;;;5074791;28;20021;-79
2022/07/16 03:59:06;;;;;;;3.22;2.92;;;;;;;;;;5076403;28;20032;-79
2022/07/16 04:01:32;;;;;;;6.95;3.05;;;;;;;;;;5075217;28;20017;-79
2022/07/16 04:03:57;;;;;;;4.68;3.08;;;;;;;;;;5075837;28;20119;-80
2022/07/16 04:06:22;;;;;;;6.85;3.17;;;;;;;;;;5075872;28;20068;-79
2022/07/16 04:08:48;;;;;;;5.05;2.70;;;;;;;;;;5076018;28;20040;-79
2022/07/16 04:11:13;;;;;;;9.13;3.35;;;;;;;;;;5075998;28;20035;-80
2022/07/16 04:13:39;;;;;;;3.55;3.00;;;;;;;;;;5075881;28;20071;-79
2022/07/16 04:16:05;;;;;;;3.83;2.90;;;;;;;;;;5075884;28;20150;-80
2022/07/16 04:18:31;;;;;;;4.68;2.97;;;;;;;;;;5074155;28;20467;-79
2022/07/16 04:20:56;;;;;;;4.20;2.67;;;;;;;;;;5075764;28;20019;-79
2022/07/16 04:23:22;;;;;;;4.38;2.88;;;;;;;;;;5075447;28;20111;-79
2022/07/16 04:25:47;;;;;;;4.22;2.60;;;;;;;;;;5074161;28;20013;-79
2022/07/16 04:28:13;;;;;;;4.47;2.90;;;;;;;;;;5075352;28;20028;-79
2022/07/16 04:30:38;;;;;;;5.13;2.85;;;;;;;;;;5075595;28;20464;-79
2022/07/16 04:33:04;;;;;;;3.60;2.95;;;;;;;;;;5075276;28;20082;-79
2022/07/16 04:35:29;;;;;;;6.22;3.00;;;;;;;;;;5075230;28;20020;-79
2022/07/16 04:37:55;;;;;;;3.35;2.88;;;;;;;;;;5074485;28;20064;-79
2022/07/16 04:40:20;;;;;;;3.55;2.92;;;;;;;;;;5075668;28;20017;-79
2022/07/16 04:42:46;;;;;;;4.25;3.08;;;;;;;;;;5073925;28;20028;-79
2022/07/16 04:45:12;;;;;;;3.25;2.88;;;;;;;;;;5075271;28;20017;-79
2022/07/16 04:47:38;;;;;;;4.05;3.00;;;;;;;;;;5073721;28;20490;-79
2022/07/16 04:50:08;;;;;;;4.88;3.22;;;;;;;;;;5074937;28;20048;-79
2022/07/16 04:52:33;;;;;;;3.10;2.80;;;;;;;;;;5075146;28;20104;-79
2022/07/16 04:54:59;;;;;;;3.42;2.97;;;;;;;;;;5074791;28;20510;-79
2022/07/16 04:57:24;;;;;;;4.50;3.20;;;;;;;;;;5056855;28;20041;-79
2022/07/16 04:59:53;;;;;;;2.90;2.70;;;;;;;;;;5074694;28;20024;-80
2022/07/16 05:05:03;;;;;;;4.30;2.85;;;;;;;;;;5074456;28;20032;-79
2022/07/16 05:07:29;;;;;;;3.97;2.85;;;;;;;;;;5075102;28;20517;-79
2022/07/16 05:09:54;;;;;;;3.30;3.00;;;;;;;;;;5074786;28;20032;-80
2022/07/16 05:12:20;;;;;;;4.15;2.85;;;;;;;;;;5073223;28;20012;-79
2022/07/16 05:14:45;;;;;;;3.25;2.95;;;;;;;;;;5074977;28;20039;-79
2022/07/16 05:17:11;;;;;;;5.97;3.15;;;;;;;;;;5074306;28;20028;-80
2022/07/16 05:19:36;;;;;;;6.63;2.92;;;;;;;;;;5074316;28;20032;-79
2022/07/16 05:22:03;;;;;;;4.13;2.97;;;;;;;;;;5074299;28;20021;-79
2022/07/16 05:24:29;;;;;;;4.82;3.03;;;;;;;;;;5074469;28;20036;-79
2022/07/16 05:26:54;;;;;;;5.78;3.60;;;;;;;;;;5072971;28;20400;-80
2022/07/16 05:29:20;;;;;;;7.03;3.58;;;;;;;;;;5074129;28;20039;-79
2022/07/16 05:31:45;;;;;;;6.68;3.85;;;;;;;;;;5073207;28;20023;-79
2022/07/16 05:34:11;;;;;;;9.00;4.10;;;;;;;;;;5073709;28;20047;-79
2022/07/16 05:36:36;;;;;;;9.93;4.13;;;;;;;;;;5073928;28;20020;-79
2022/07/16 05:39:02;;;;;;;8.68;4.32;;;;;;;;;;5074210;28;20036;-80
2022/07/16 05:41:27;;;;;;;10.50;4.45;;;;;;;;;;5074258;28;20091;-79
2022/07/16 05:43:52;;;;;;;11.02;5.10;;;;;;;;;;5073942;28;20024;-79
2022/07/16 05:46:18;;;;;;;12.18;4.68;;;;;;;;;;5073927;28;20375;-79
2022/07/16 05:48:43;;;;;;;7.18;4.20;;;;;;;;;;5074121;28;20044;-79
2022/07/16 05:51:09;;;;;;;12.55;4.82;;;;;;;;;;5074112;28;20046;-79
2022/07/16 05:53:37;;;;;;;12.43;4.88;;;;;;;;;;5074039;28;20024;-79
2022/07/16 05:56:02;;;;;;;8.65;4.93;;;;;;;;;;5072840;28;20020;-79
2022/07/16 05:58:27;;;;;;;5.97;4.05;;;;;;;;;;5073658;28;20036;-79
2022/07/16 06:00:53;;;;;;;7.25;4.75;;;;;;;;;;5073810;28;20131;-80
2022/07/16 06:03:18;;;;;;;7.97;4.80;;;;;;;;;;5072793;28;20029;-79
2022/07/16 06:05:44;;;;;;;6.85;4.32;;;;;;;;;;5073855;28;20040;-79
2022/07/16 06:08:09;;;;;;;8.32;4.15;;;;;;;;;;5074209;28;20056;-79
2022/07/16 06:10:34;;;;;;;12.48;4.88;;;;;;;;;;5073876;28;20078;-79
2022/07/16 06:13:00;;;;;;;8.55;5.05;;;;;;;;;;5073561;28;20487;-78
2022/07/16 06:15:25;;;;;;;6.60;4.72;;;;;;;;;;5073569;28;20372;-79
2022/07/16 06:17:51;;;;;;;10.10;5.18;;;;;;;;;;5073702;28;20046;-79
2022/07/16 06:20:16;;;;;;;10.60;5.50;;;;;;;;;;5072251;28;20019;-79
2022/07/16 06:22:42;;;;;;;10.00;5.07;;;;;;;;;;5073467;28;20361;-79
2022/07/16 06:25:07;;;;;;;8.07;4.95;;;;;;;;;;5073479;28;20047;-79
2022/07/16 06:27:33;;;;;;;11.77;5.13;;;;;;;;;;5073975;28;20428;-79
2022/07/16 06:30:03;;;;;;;14.30;5.50;;;;;;;;;;5073412;28;20460;-79
2022/07/16 06:32:28;;;;;;;11.45;5.05;;;;;;;;;;5073386;28;20055;-79
2022/07/16 06:34:54;;;;;;;8.68;5.28;;;;;;;;;;5073355;28;20480;-79
2022/07/16 06:37:19;;;;;;;12.57;6.45;;;;;;;;;;5073491;28;20078;-80
2022/07/16 06:39:45;;;;;;;13.02;5.53;;;;;;;;;;5073629;28;20020;-79
2022/07/16 06:42:10;;;;;;;16.02;6.22;;;;;;;;;;5073554;28;20036;-79
2022/07/16 06:44:40;;;;;;;6.15;3.95;;;;;;;;;;5072030;28;20016;-79
2022/07/16 06:47:05;;;;;;;5.95;4.30;;;;;;;;;;5076197;28;20035;-79
2022/07/16 06:49:31;;;;;;;8.07;3.80;;;;;;;;;;5077522;28;20020;-79
2022/07/16 06:51:56;;;;;;;11.93;3.58;;;;;;;;;;5076039;28;20094;-80
2022/07/16 06:54:22;;;;;;;5.32;3.58;;;;;;;;;;5077712;28;20504;-79
2022/07/16 06:56:47;;;;;;;8.02;3.88;;;;;;;;;;5077620;28;20078;-79
2022/07/16 06:59:12;;;;;;;8.18;4.15;;;;;;;;;;5076964;28;20389;-79
2022/07/16 07:01:38;;;;;;;8.38;3.90;;;;;;;;;;5077529;28;20456;-79
2022/07/16 07:04:03;;;;;;;4.03;3.13;;;;;;;;;;5077235;28;20091;-70
2022/07/16 07:06:29;;;;;;;3.42;2.58;;;;;;;;;;5076540;28;20076;-70
2022/07/16 07:08:55;;;;;;;4.78;2.55;;;;;;;;;;5076775;28;20040;-70
2022/07/16 07:11:20;;;;;;;3.50;2.25;;;;;;;;;;5077300;28;20036;-70
2022/07/16 07:13:45;;;;;;;4.88;2.33;;;;;;;;;;5076738;28;20029;-70
2022/07/16 07:16:11;;;;;;;4.88;2.08;;;;;;;;;;5075393;28;20177;-70
2022/07/16 07:18:36;;;;;;;2.53;2.00;;;;;;;;;;5077185;28;20089;-70
2022/07/16 07:21:02;;;;;;;3.05;1.83;;;;;;;;;;5076636;28;20415;-70
2022/07/16 07:23:27;;;;;;;7.45;2.03;;;;;;;;;;5076597;28;20483;-70
2022/07/16 07:25:53;;;;;;;3.80;1.90;;;;;;;;;;5076761;28;20078;-70
2022/07/16 07:28:18;;;;;;;3.95;2.22;;;;;;;;;;5058582;28;20115;-70
2022/07/16 07:30:44;;;;;;;4.70;2.05;;;;;;;;;;5076456;28;20052;-70
2022/07/16 07:33:10;;;;;;;2.80;2.20;;;;;;;;;;5076705;28;20047;-70
2022/07/16 07:35:36;;;;;;;3.42;2.28;;;;;;;;;;5076405;28;20065;-70
2022/07/16 07:38:01;;;;;;;3.78;2.55;;;;;;;;;;5076527;28;20047;-70
2022/07/16 07:40:27;;;;;;;5.82;2.50;;;;;;;;;;5076260;28;20025;-70
2022/07/16 07:42:52;;;;;;;4.38;2.42;;;;;;;;;;5076782;28;20069;-70
2022/07/16 07:45:17;;;;;;;3.75;2.33;;;;;;;;;;5076195;28;20089;-70
2022/07/16 07:47:43;;;;;;;3.85;2.40;;;;;;;;;;5075223;28;20017;-70
2022/07/16 07:50:09;;;;;;;3.83;2.60;;;;;;;;;;5076111;28;20429;-70
2022/07/16 07:52:34;;;;;;;4.45;2.47;;;;;;;;;;5074804;28;20024;-70
2022/07/16 07:55:00;;;;;;;8.07;2.92;;;;;;;;;;5076586;28;20107;-70
2022/07/16 07:57:25;;;;;;;3.13;2.58;;;;;;;;;;5075577;28;20099;-70
2022/07/16 07:59:50;;;;;;;8.30;2.75;;;;;;;;;;5075888;28;20111;-70
2022/07/16 08:02:16;;;;;;;7.32;3.25;;;;;;;;;;5075902;28;20021;-70
2022/07/16 08:04:42;;;;;;;12.07;3.20;;;;;;;;;;5075865;28;20035;-70
2022/07/16 08:07:07;;;;;;;9.93;4.03;;;;;;;;;;5074366;28;20033;-70
2022/07/16 08:09:33;;;;;;;9.57;3.63;;;;;;;;;;5075741;28;20033;-70
2022/07/16 08:11:59;;;;;;;6.18;2.88;;;;;;;;;;5075987;28;20035;-70
2022/07/16 08:14:25;;;;;;;6.32;2.08;;;;;;;;;;5075919;28;20475;-70
2022/07/16 08:16:50;;;;;;;8.05;2.88;;;;;;;;;;5075562;28;20020;-70
2022/07/16 08:19:16;;;;;;;2.92;2.13;;;;;;;;;;5074341;28;20040;-70
2022/07/16 08:21:41;;;;;;;3.58;1.50;;;;;;;;;;5074615;28;20021;-70
2022/07/16 08:26:51;;;;;;;3.65;1.88;;;;;;;;;;5075677;28;20025;-70
2022/07/16 08:29:16;;;;;;;2.17;1.45;;;;;;;;;;5075955;28;20013;-70
2022/07/16 08:31:42;;;;;;;3.30;1.95;;;;;;;;;;5074040;28;20036;-70
2022/07/16 08:34:07;;;;;;;3.05;1.75;;;;;;;;;;5075596;28;20028;-70
2022/07/16 08:36:33;;;;;;;3.17;1.70;;;;;;;;;;5075210;28;20028;-70
2022/07/16 08:38:59;;;;;;;6.35;2.28;;;;;;;;;;5075133;28;20103;-70
2022/07/16 08:41:25;;;;;;;3.58;2.10;;;;;;;;;;5075394;28;20413;-70
2022/07/16 08:43:51;;;;;;;7.65;2.35;;;;;;;;;;5075063;28;20422;-70
2022/07/16 08:46:19;;;;;;;3.90;2.10;;;;;;;;;;5074988;28;20369;-70
2022/07/16 08:48:44;;;;;;;2.28;1.70;;;;;;;;;;5075525;28;20028;-70
2022/07/16 08:51:10;;;;;;;6.18;2.38;;;;;;;;;;5075174;28;20043;-70
2022/07/16 08:53:36;;;;;;;2.22;1.65;;;;;;;;;;5074853;28;20025;-70
2022/07/16 08:56:01;;;;;;;3.95;1.83;;;;;;;;;;5075374;28;20032;-70
2022/07/16 08:58:31;;;;;;;6.05;1.92;;;;;;;;;;5061706;23;20049;-79
2022/07/16 09:00:56;;;;;;;5.10;1.58;;;;;;;;;;5015299;28;20018;-79
2022/07/16 09:03:21;;;;;;;2.53;1.88;;;;;;;;;;5015020;28;20398;-80
2022/07/16 09:05:49;;;;;;;2.20;1.38;;;;;;;;;;5015217;28;20065;-79
2022/07/16 09:08:15;;;;;;;3.70;2.03;;;;;;;;;;5014062;28;20033;-80
2022/07/16 09:10:41;;;;;;;3.55;1.60;;;;;;;;;;5013508;28;20125;-79
2022/07/16 09:13:08;;;;;;;6.13;1.90;;;;;;;;;;5013666;28;20061;-79
2022/07/16 09:15:38;;;;;;;3.20;1.98;;;;;;;;;;5015387;28;20179;-79
2022/07/16 09:18:11;;;;;;;4.60;1.67;;;;;;;;;;5014966;28;20038;-79
2022/07/16 09:20:37;;;;;;;3.42;1.73;;;;;;;;;;5014986;28;20484;-79
2022/07/16 09:23:03;;;;;;;2.33;1.60;;;;;;;;;;5013832;28;20048;-80
2022/07/16 09:25:29;;;;;;;3.50;1.40;;;;;;;;;;5013381;28;20466;-79
2022/07/16 09:27:58;;;;;;;2.13;1.20;;;;;;;;;;5014605;28;20057;-79
2022/07/16 09:30:24;;;;;;;3.60;1.35;;;;;;;;;;5014818;28;20034;-79
2022/07/16 09:32:49;;;;;;;2.40;1.38;;;;;;;;;;5015062;28;20032;-78
2022/07/16 09:35:15;;;;;;;5.95;1.30;;;;;;;;;;5014456;28;20088;-79
2022/07/16 09:37:48;;;;;;;1.25;1.15;;;;;;;;;;5014649;28;20033;-79
2022/07/16 09:40:15;;;;;;;2.08;1.30;;;;;;;;;;5014730;28;20053;-80
2022/07/16 09:42:41;;;;;;;3.05;1.40;;;;;;;;;;5015186;28;20425;-79
2022/07/16 09:45:07;;;;;;;2.95;1.30;;;;;;;;;;5014621;28;20453;-79
2022/07/16 09:47:32;;;;;;;3.05;1.73;;;;;;;;;;5014555;28;20026;-79
2022/07/16 09:49:58;;;;;;;1.85;1.15;;;;;;;;;;5014528;28;20030;-79
2022/07/16 09:52:29;;;;;;;2.95;1.10;;;;;;;;;;5014762;28;20068;-79
2022/07/16 09:54:55;;;;;;;2.13;1.40;;;;;;;;;;5014456;28;20037;-79
2022/07/16 09:57:21;;;;;;;1.67;1.50;;;;;;;;;;5014315;28;20029;-79
2022/07/16 09:59:47;;;;;;;2.10;1.08;;;;;;;;;;5029847;28;20049;-79
2022/07/16 10:02:13;;;;;;;2.28;1.52;;;;;;;;;;5034337;28;20033;-79
2022/07/16 10:04:39;;;;;;;2.53;1.30;;;;;;;;;;5049059;28;20025;-79
2022/07/16 10:07:05;;;;;;;2.63;1.48;;;;;;;;;;5033703;28;20407;-79
2022/07/16 10:09:30;;;;;;;1.00;1.00;;;;;;;;;;5015968;28;20030;-79
2022/07/16 10:11:57;;;;;;;1.67;1.20;;;;;;;;;;5033676;28;20143;-79
2022/07/16 10:14:24;;;;;;;3.38;1.50;;;;;;;;;;5033629;28;20413;-79
2022/07/16 10:16:50;;;;;;;2.92;1.42;;;;;;;;;;5015892;28;20060;-80
2022/07/16 10:19:15;;;;;;;2.35;1.67;;;;;;;;;;5015942;28;20099;-79
2022/07/16 10:22:01;;;;;;;3.70;1.85;;;;;;;;;;5033295;28;20048;-79
2022/07/16 10:24:42;;;;;;;3.25;1.60;;;;;;;;;;5033297;28;20028;-80
2022/07/16 10:27:28;;;;;;;3.58;1.10;;;;;;;;;;5033760;28;20109;-79
2022/07/16 10:30:14;;;;;;;2.55;1.30;;;;;;;;;;5033702;28;20029;-80
2022/07/16 10:32:58;;;;;;;1.95;1.33;;;;;;;;;;5033720;28;20026;-79
2022/07/16 10:35:30;;;;;;;2.63;1.45;;;;;;;;;;5032188;28;20029;-79
2022/07/16 10:38:09;;;;;;;2.70;1.33;;;;;;;;;;5048635;28;20034;-79
2022/07/16 10:40:37;;;;;;;1.38;1.02;;;;;;;;;;5033870;28;20029;-79
2022/07/16 10:43:16;;;;;;;3.05;1.13;;;;;;;;;;5033372;28;20092;-79
2022/07/16 10:45:52;;;;;;;2.95;1.10;;;;;;;;;;5033610;28;20029;-79
2022/07/16 10:48:18;;;;;;;1.40;1.30;;;;;;;;;;5033584;28;20047;-78
2022/07/16 10:51:04;;;;;;;2.85;1.17;;;;;;;;;;5015753;28;20536;-79
2022/07/16 10:53:50;;;;;;;1.40;1.20;;;;;;;;;;5022828;28;20053;-79
2022/07/16 10:56:34;;;;;;;1.00;0.77;;;;;;;;;;5033369;28;20034;-78
2022/07/16 10:59:03;;;;;;;0.95;0.90;;;;;;;;;;5033257;28;20049;-79
2022/07/16 11:01:29;;;;;;;1.48;0.90;;;;;;;;;;5033462;28;20036;-79
2022/07/16 11:03:55;;;;;;;1.13;0.90;;;;;;;;;;5033652;28;20484;-79
2022/07/16 11:06:20;;;;;;;1.70;1.20;;;;;;;;;;5033161;28;20014;-80
2022/07/16 11:08:46;;;;;;;2.53;1.30;;;;;;;;;;5033410;28;20033;-79
2022/07/16 11:11:11;;;;;;;1.50;1.00;;;;;;;;;;5033661;28;20021;-79
2022/07/16 11:13:37;;;;;;;1.90;1.13;;;;;;;;;;5015345;28;20025;-79
2022/07/16 11:16:09;;;;;;;2.00;1.05;;;;;;;;;;5033361;28;20028;-80
2022/07/16 11:18:35;;;;;;;0.95;0.82;;;;;;;;;;5033267;28;20194;-79
2022/07/16 11:21:04;;;;;;;1.40;1.00;;;;;;;;;;5033292;28;20071;-79
2022/07/16 11:23:29;;;;;;;1.55;0.77;;;;;;;;;;5048342;28;20025;-79
2022/07/16 11:25:56;;;;;;;0.85;0.77;;;;;;;;;;5048283;28;20021;-79
2022/07/16 11:28:21;;;;;;;2.17;1.00;;;;;;;;;;5033545;28;20057;-79
2022/07/16 11:30:59;;;;;;;2.40;1.10;;;;;;;;;;5032948;28;20048;-79
2022/07/16 11:33:34;;;;;;;3.45;1.20;;;;;;;;;;5034314;28;20473;-79
2022/07/16 11:36:08;;;;;;;0.70;0.43;;;;;;;;;;5051851;28;20037;-79
2022/07/16 11:38:33;;;;;;;1.00;0.90;;;;;;;;;;5036331;28;20473;-80
2022/07/16 11:40:58;;;;;;;2.45;1.00;;;;;;;;;;5036359;28;20028;-79
2022/07/16 11:43:27;;;;;;;1.20;0.95;;;;;;;;;;5036153;28;20102;-79
2022/07/16 11:45:53;;;;;;;1.48;1.00;;;;;;;;;;5036206;28;20045;-79
2022/07/16 11:48:19;;;;;;;2.13;1.63;;;;;;;;;;5036418;28;20064;-79
2022/07/16 11:50:45;;;;;;;3.17;1.00;;;;;;;;;;5036438;28;20025;-79
2022/07/16 11:53:14;;;;;;;2.00;1.23;;;;;;;;;;5036138;28;20477;-79
2022/07/16 11:55:43;;;;;;;1.35;1.02;;;;;;;;;;5051440;28;20486;-79
2022/07/16 11:58:10;;;;;;;0.88;0.88;;;;;;;;;;5018400;28;20040;-79
2022/07/16 12:00:43;;;;;;;1.10;1.00;;;;;;;;;;5036257;28;20408;-79
2022/07/16 12:03:09;;;;;;;1.88;0.85;;;;;;;;;;5036189;28;20030;-79
2022/07/16 12:05:35;;;;;;;2.80;1.25;;;;;;;;;;5035873;28;20032;-79
2022/07/16 12:08:02;;;;;;;2.35;1.45;;;;;;;;;;5018219;28;20033;-79
2022/07/16 12:10:27;;;;;;;1.20;0.98;;;;;;;;;;5036325;28;20018;-79
2022/07/16 12:13:06;;;;;;;1.80;1.10;;;;;;;;;;5035756;28;20060;-79
2022/07/16 12:15:53;;;;;;;1.50;1.00;;;;;;;;;;5035962;28;20156;-79
2022/07/16 12:18:19;;;;;;;1.33;1.02;;;;;;;;;;5018481;28;20056;-79
2022/07/16 12:20:45;;;;;;;1.45;1.02;;;;;;;;;;5035600;28;20029;-79
2022/07/16 12:23:16;;;;;;;2.83;1.20;;;;;;;;;;5035848;28;20028;-79
2022/07/16 12:25:45;;;;;;;0.73;0.73;;;;;;;;;;5050848;28;20036;-79
2022/07/16 12:28:31;;;;;;;1.30;1.20;;;;;;;;;;5035486;28;20092;-79
2022/07/16 12:30:58;;;;;;;1.00;0.70;;;;;;;;;;5035551;28;20029;-79
2022/07/16 12:33:28;;;;;;;1.63;0.80;;;;;;;;;;5035414;28;20103;-80
2022/07/16 12:36:04;;;;;;;2.22;0.82;;;;;;;;;;5017751;28;20040;-79
2022/07/16 12:41:18;;;;;;;2.90;1.00;;;;;;;;;;5035506;28;20478;-79
2022/07/16 12:43:44;;;;;;;2.45;1.10;;;;;;;;;;5017386;28;20101;-79
2022/07/16 12:46:10;;;;;;;0.90;0.90;;;;;;;;;;5035376;28;20025;-79
2022/07/16 12:48:46;;;;;;;0.85;0.80;;;;;;;;;;5017421;28;20469;-79
2022/07/16 12:51:12;;;;;;;1.55;0.90;;;;;;;;;;5050452;28;20030;-79
2022/07/16 12:53:38;;;;;;;1.55;0.90;;;;;;;;;;5035210;28;20025;-79
2022/07/16 12:58:59;;;;;;;2.33;0.90;;;;;;;;;;4964087;28;20043;-79
2022/07/16 13:01:26;;;;;;;1.50;0.90;;;;;;;;;;5035417;28;20091;-79
2022/07/16 13:03:52;;;;;;;2.00;1.15;;;;;;;;;;5035138;28;20022;-79
2022/07/16 13:06:17;;;;;;;1.38;1.00;;;;;;;;;;5035039;28;20154;-79
2022/07/16 13:08:43;;;;;;;1.48;1.08;;;;;;;;;;5034982;28;20033;-79
2022/07/16 13:11:09;;;;;;;2.03;1.05;;;;;;;;;;5034924;28;20036;-79
2022/07/16 13:13:36;;;;;;;3.17;1.20;;;;;;;;;;5034586;28;20030;-80
2022/07/16 13:16:01;;;;;;;1.55;1.02;;;;;;;;;;5034873;28;20047;-79
2022/07/16 13:18:27;;;;;;;1.85;0.88;;;;;;;;;;5034695;28;20041;-79
2022/07/16 13:20:55;;;;;;;1.52;0.95;;;;;;;;;;5034501;28;20017;-79
2022/07/16 13:23:20;;;;;;;1.08;0.98;;;;;;;;;;5034955;28;20469;-79
2022/07/16 13:25:46;;;;;;;1.42;1.05;;;;;;;;;;5034653;28;20022;-79
2022/07/16 13:28:12;;;;;;;1.10;0.93;;;;;;;;;;5034577;28;20025;-79
2022/07/16 13:30:37;;;;;;;2.03;0.98;;;;;;;;;;5034821;28;20025;-79
2022/07/16 13:33:02;;;;;;;2.42;1.00;;;;;;;;;;5034795;28;20037;-79
2022/07/16 13:35:28;;;;;;;0.95;0.90;;;;;;;;;;5016512;28;20048;-79
2022/07/16 13:37:53;;;;;;;2.38;1.10;;;;;;;;;;5016408;28;20033;-79
2022/07/16 13:40:19;;;;;;;1.08;0.90;;;;;;;;;;5034436;28;20049;-79
2022/07/16 13:42:45;;;;;;;1.20;1.10;;;;;;;;;;5034357;28;20370;-79
2022/07/16 13:45:10;;;;;;;1.65;0.95;;;;;;;;;;5034067;28;20028;-80
2022/07/16 13:47:36;;;;;;;1.30;1.10;;;;;;;;;;5049350;28;20116;-79
2022/07/16 13:50:04;;;;;;;4.15;1.00;;;;;;;;;;4999896;28;20463;-79
2022/07/16 13:52:30;;;;;;;1.00;0.90;;;;;;;;;;5034224;28;20021;-79
2022/07/16 13:54:55;;;;;;;1.05;1.00;;;;;;;;;;5034105;28;20510;-79
2022/07/16 14:00:05;;;;;;;1.00;1.00;;;;;;;;;;5033676;28;20072;-79
2022/07/16 14:02:37;;;;;;;1.08;0.90;;;;;;;;;;5033736;28;20042;-79
2022/07/16 14:05:04;;;;;;;1.08;0.98;;;;;;;;;;5033762;28;20026;-79
2022/07/16 14:07:29;;;;;;;1.30;1.00;;;;;;;;;;5033956;28;20412;-79
2022/07/16 14:09:54;;;;;;;2.58;1.10;;;;;;;;;;5033674;28;20032;-79
2022/07/16 14:12:20;;;;;;;1.77;1.25;;;;;;;;;;5034221;28;20116;-79
2022/07/16 14:14:46;;;;;;;1.95;1.02;;;;;;;;;;5033868;28;20030;-79
2022/07/16 14:17:12;;;;;;;1.38;0.90;;;;;;;;;;5016507;28;20100;-80
2022/07/16 14:19:37;;;;;;;1.45;1.00;;;;;;;;;;5033475;28;20584;-79
2022/07/16 14:22:03;;;;;;;1.35;1.08;;;;;;;;;;5015882;28;20112;-79
2022/07/16 14:24:28;;;;;;;0.95;0.90;;;;;;;;;;5034044;28;20036;-79
2022/07/16 14:26:53;;;;;;;2.72;1.08;;;;;;;;;;5033518;28;20056;-79
2022/07/16 14:29:19;;;;;;;1.15;0.85;;;;;;;;;;5033449;28;20030;-79
2022/07/16 14:31:44;;;;;;;3.10;0.80;;;;;;;;;;5033743;28;20026;-79
2022/07/16 14:34:10;;;;;;;3.03;0.80;;;;;;;;;;5016159;28;20026;-79
2022/07/16 14:36:35;;;;;;;1.00;0.82;;;;;;;;;;5033406;28;20030;-79
2022/07/16 14:39:00;;;;;;;2.33;0.82;;;;;;;;;;5033887;28;20044;-79
2022/07/16 14:41:26;;;;;;;1.27;0.82;;;;;;;;;;5053135;23;20136;-70
2022/07/16 14:43:51;;;;;;;0.60;0.60;;;;;;;;;;5053507;28;20021;-70
2022/07/16 14:46:17;;;;;;;0.80;0.80;;;;;;;;;;5068685;28;20472;-70
2022/07/16 14:48:43;;;;;;;3.10;1.00;;;;;;;;;;5053496;28;20037;-71
2022/07/16 14:51:08;;;;;;;1.73;0.98;;;;;;;;;;5053764;28;20052;-71
2022/07/16 14:53:33;;;;;;;1.67;0.63;;;;;;;;;;5053472;28;20060;-70
2022/07/16 14:55:59;;;;;;;1.67;0.80;;;;;;;;;;5053737;28;20127;-70